Verdi, Minnesota
Current Conditions -  °F | °C
As of 2:34 AM on Friday 31 Oct 2014 (Local Time) from KPQN Reporting Station
Clear Clear  
Wind Chill: 17°   Ceiling: Unl
Heat Index: 27°   Visibility: 10mi
Dew Point: 19°   Wind: 10mph
Humidity: 74%   Direction: 30°NNE
Pressure: 30.48"   Gusts: 17mph
Location:  44.066°N, 96.3302°W
Report Text: KPQN 310734Z AUTO 03009G15KT 10SM CLR M03/M07 A3048 RMK AO2
Loading
Personal Weather Stations






























Interactive Weather Map
Tropical Storm Tracking
New forecast layout! Learn more

10-Day Weather Forecast

Advertisements
Track Severe Weather on mobile